Time;durP1;ratioP1;P1;durP2;ratioP2;P2;SDS_P1;SDS_P2;PMS_P1;PMS_P2;Temp;Humidity;BMP_temperature;BMP_pressure;BME280_temperature;BME280_humidity;BME280_pressure;Samples;Min_cycle;Max_cycle;Signal;HPM_P1;HPM_P2
2023/04/02 00:02:45;;;;;;;0.50;0.50;;;7.70;99.90;;;;;;6099576;23;20133;-77
2023/04/02 00:05:19;;;;;;;0.30;0.30;;;7.80;99.90;;;;;;5981629;24;20588;-76
2023/04/02 00:07:56;;;;;;;0.40;0.40;;;7.80;99.90;;;;;;6063710;23;20153;-77
2023/04/02 00:10:52;;;;;;;0.40;0.40;;;7.80;99.90;;;;;;6098839;23;20573;-78
2023/04/02 00:13:17;;;;;;;0.40;0.40;;;7.70;99.90;;;;;;6072671;23;20179;-77
2023/04/02 00:15:46;;;;;;;0.50;0.50;;;7.60;99.90;;;;;;6072885;23;20457;-78
2023/04/02 00:18:17;;;;;;;0.73;0.65;;;7.60;99.90;;;;;;6098021;23;20163;-78
2023/04/02 00:20:51;;;;;;;0.30;0.30;;;7.70;99.90;;;;;;6097728;23;20194;-77
2023/04/02 00:23:17;;;;;;;0.68;0.68;;;7.50;99.90;;;;;;6098304;23;20174;-78
2023/04/02 00:25:45;;;;;;;0.80;0.45;;;7.50;99.90;;;;;;6098170;23;20175;-77
2023/04/02 00:28:22;;;;;;;0.57;0.57;;;7.60;99.90;;;;;;6098253;23;20158;-76
2023/04/02 00:30:59;;;;;;;0.85;0.85;;;7.60;99.90;;;;;;6097939;23;20171;-78
2023/04/02 00:33:30;;;;;;;0.60;0.60;;;7.70;99.90;;;;;;6098189;23;20174;-79
2023/04/02 00:35:56;;;;;;;0.30;0.30;;;7.80;99.90;;;;;;6098296;23;20172;-78
2023/04/02 00:38:26;;;;;;;0.40;0.40;;;7.70;99.90;;;;;;6098000;23;20163;-77
2023/04/02 00:40:55;;;;;;;0.30;0.30;;;7.60;99.90;;;;;;6097944;23;20172;-78
2023/04/02 00:43:23;;;;;;;0.40;0.40;;;7.50;99.90;;;;;;6097921;23;20175;-77
2023/04/02 00:45:55;;;;;;;0.40;0.40;;;7.50;99.90;;;;;;6097930;23;20225;-78
2023/04/02 00:48:42;;;;;;;2.15;1.48;;;7.40;99.90;;;;;;6097924;23;20146;-77
2023/04/02 00:51:20;;;;;;;0.65;0.65;;;7.60;99.90;;;;;;6072372;23;20179;-78
2023/04/02 00:53:47;;;;;;;0.30;0.30;;;7.70;99.90;;;;;;6072309;23;20179;-78
2023/04/02 00:56:30;;;;;;;0.30;0.30;;;7.80;99.90;;;;;;6097850;23;20594;-78
2023/04/02 00:58:57;;;;;;;0.40;0.40;;;7.80;99.90;;;;;;6097619;23;20136;-77
2023/04/02 01:01:26;;;;;;;0.40;0.40;;;7.90;99.90;;;;;;6097879;23;20234;-77
2023/04/02 01:04:00;;;;;;;0.38;0.38;;;7.90;99.90;;;;;;6072257;23;20176;-77
2023/04/02 01:06:36;;;;;;;0.30;0.30;;;7.90;99.90;;;;;;6098114;23;20158;-76
2023/04/02 01:09:10;;;;;;;0.30;0.30;;;7.90;99.90;;;;;;6097842;23;20187;-79
2023/04/02 01:11:54;;;;;;;0.57;0.57;;;7.80;99.90;;;;;;6072149;23;20164;-78
2023/04/02 01:14:20;;;;;;;1.40;1.30;;;7.80;99.90;;;;;;6097619;23;20175;-76
2023/04/02 01:16:52;;;;;;;0.40;0.40;;;7.80;99.90;;;;;;6097701;23;20618;-77
2023/04/02 01:19:28;;;;;;;0.73;0.73;;;7.90;99.90;;;;;;6072231;23;20195;-76
2023/04/02 01:21:57;;;;;;;0.40;0.40;;;7.80;99.90;;;;;;6072179;23;20234;-77
2023/04/02 01:24:28;;;;;;;0.50;0.50;;;7.90;99.90;;;;;;6097474;23;20171;-78
2023/04/02 01:27:25;;;;;;;0.40;0.40;;;7.90;99.90;;;;;;6097877;23;20184;-78
2023/04/02 01:29:56;;;;;;;0.60;0.60;;;7.80;99.90;;;;;;6047672;23;20155;-77
2023/04/02 01:32:26;;;;;;;0.40;0.40;;;7.80;99.90;;;;;;6070503;23;20166;-77
2023/04/02 01:34:52;;;;;;;0.40;0.40;;;7.80;99.90;;;;;;6095027;23;20154;-77
2023/04/02 01:37:43;;;;;;;0.50;0.50;;;7.70;99.90;;;;;;6094594;23;20222;-77
2023/04/02 01:40:26;;;;;;;0.30;0.30;;;7.50;99.90;;;;;;6097101;23;20522;-78
2023/04/02 01:43:30;;;;;;;0.40;0.40;;;7.40;99.90;;;;;;6097453;23;20219;-77
2023/04/02 01:45:57;;;;;;;0.50;0.50;;;7.40;99.90;;;;;;6097518;23;20144;-78
2023/04/02 01:48:28;;;;;;;0.40;0.40;;;7.50;99.90;;;;;;6097905;23;20148;-77
2023/04/02 01:50:57;;;;;;;0.47;0.47;;;7.50;99.90;;;;;;6072511;23;20159;-77
2023/04/02 01:53:25;;;;;;;0.40;0.40;;;7.50;99.90;;;;;;6072122;23;20574;-76
2023/04/02 01:55:59;;;;;;;0.55;0.55;;;7.60;99.90;;;;;;6071961;23;20242;-77
2023/04/02 01:58:31;;;;;;;0.30;0.30;;;7.70;99.90;;;;;;6097386;23;20143;-77
2023/04/02 02:01:22;;;;;;;0.40;0.40;;;7.60;99.90;;;;;;6097605;23;20186;-78
2023/04/02 02:03:49;;;;;;;0.40;0.40;;;7.70;99.90;;;;;;6097648;23;20172;-76
2023/04/02 02:06:17;;;;;;;1.40;0.70;;;7.70;99.90;;;;;;6097350;23;20148;-77
2023/04/02 02:08:55;;;;;;;0.30;0.30;;;7.60;99.90;;;;;;6097198;23;20147;-78
2023/04/02 02:11:25;;;;;;;0.30;0.30;;;7.60;99.90;;;;;;6071955;23;20148;-79
2023/04/02 02:13:57;;;;;;;0.30;0.30;;;7.70;99.90;;;;;;6097822;23;20612;-77
2023/04/02 02:16:26;;;;;;;0.40;0.40;;;7.60;99.90;;;;;;6097412;23;20152;-77
2023/04/02 02:19:02;;;;;;;0.40;0.40;;;7.50;99.90;;;;;;6071569;23;20155;-78
2023/04/02 02:21:45;;;;;;;0.98;0.98;;;7.20;99.90;;;;;;6097647;23;20691;-76
2023/04/02 02:24:32;;;;;;;0.93;0.93;;;7.20;99.90;;;;;;6097364;23;20171;-77
2023/04/02 02:27:07;;;;;;;0.30;0.30;;;7.20;99.90;;;;;;6071891;23;20486;-77
2023/04/02 02:29:37;;;;;;;0.40;0.40;;;7.30;99.90;;;;;;6071480;23;20658;-76
2023/04/02 02:32:05;;;;;;;0.30;0.30;;;7.30;99.90;;;;;;6097469;23;20650;-77
2023/04/02 02:34:37;;;;;;;0.95;0.95;;;7.40;99.90;;;;;;6071597;23;20184;-76
2023/04/02 02:37:13;;;;;;;1.38;1.27;;;7.50;99.90;;;;;;6097191;23;20565;-79
2023/04/02 02:39:43;;;;;;;0.30;0.30;;;7.50;99.90;;;;;;6097251;23;20198;-78
2023/04/02 02:42:11;;;;;;;0.40;0.40;;;7.60;99.90;;;;;;6097226;23;20176;-78
2023/04/02 02:44:43;;;;;;;1.48;0.82;;;7.60;99.90;;;;;;6098547;23;20168;-78
2023/04/02 02:47:17;;;;;;;0.73;0.73;;;7.70;99.90;;;;;;6099379;23;20147;-76
2023/04/02 02:49:46;;;;;;;0.38;0.38;;;7.60;99.90;;;;;;6099106;23;20143;-77
2023/04/02 02:52:18;;;;;;;0.80;0.63;;;7.60;99.90;;;;;;6099091;23;20179;-77
2023/04/02 02:54:55;;;;;;;0.40;0.40;;;7.70;99.90;;;;;;6098893;23;20160;-78
2023/04/02 02:57:31;;;;;;;0.40;0.40;;;7.70;99.90;;;;;;6073520;23;20159;-77
2023/04/02 03:00:00;;;;;;;0.40;0.40;;;7.70;99.90;;;;;;6098872;23;20485;-77
2023/04/02 03:02:27;;;;;;;0.50;0.50;;;7.70;99.90;;;;;;6098906;23;20152;-78
2023/04/02 03:04:54;;;;;;;0.73;0.73;;;7.70;99.90;;;;;;6098800;23;20253;-78
2023/04/02 03:07:24;;;;;;;0.40;0.40;;;7.70;99.90;;;;;;6099065;23;20155;-76
2023/04/02 03:10:05;;;;;;;0.30;0.30;;;7.60;99.90;;;;;;6098491;23;20161;-77
2023/04/02 03:13:08;;;;;;;0.35;0.35;;;7.60;99.90;;;;;;6073257;23;20163;-76
2023/04/02 03:15:40;;;;;;;0.57;0.57;;;7.60;99.90;;;;;;6073156;23;20151;-76
2023/04/02 03:18:27;;;;;;;0.40;0.40;;;7.50;99.90;;;;;;6098829;23;20143;-77
2023/04/02 03:21:20;;;;;;;0.40;0.40;;;7.50;99.90;;;;;;6098994;23;20183;-78
2023/04/02 03:24:04;;;;;;;0.60;0.60;;;7.50;99.90;;;;;;6044791;23;20182;-78
2023/04/02 03:26:42;;;;;;;0.40;0.40;;;7.40;99.90;;;;;;6073197;23;20175;-77
2023/04/02 03:29:13;;;;;;;0.50;0.50;;;7.50;99.90;;;;;;6072882;23;20147;-76
2023/04/02 03:31:42;;;;;;;0.60;0.60;;;7.60;99.90;;;;;;6098735;23;20650;-78
2023/04/02 03:34:17;;;;;;;0.40;0.40;;;7.60;99.90;;;;;;6098582;23;20183;-77
2023/04/02 03:37:14;;;;;;;2.15;0.50;;;7.60;99.90;;;;;;6098877;23;20164;-77
2023/04/02 03:39:57;;;;;;;0.40;0.40;;;7.60;99.90;;;;;;6039293;23;20222;-78
2023/04/02 03:42:29;;;;;;;1.50;1.50;;;7.50;99.90;;;;;;6098660;23;20132;-77
2023/04/02 03:45:18;;;;;;;0.40;0.40;;;7.60;99.90;;;;;;6072898;23;20636;-76
2023/04/02 03:47:46;;;;;;;3.65;3.00;;;7.60;99.90;;;;;;6098688;23;20143;-78
2023/04/02 03:50:30;;;;;;;0.50;0.50;;;7.60;99.90;;;;;;6098225;23;20484;-76
2023/04/02 03:52:58;;;;;;;0.30;0.30;;;7.70;99.90;;;;;;6098397;23;20179;-78
2023/04/02 03:55:28;;;;;;;0.70;0.70;;;7.70;99.90;;;;;;6072612;23;20194;-76
2023/04/02 03:58:31;;;;;;;0.60;0.60;;;7.80;99.90;;;;;;6098253;23;20148;-79
2023/04/02 04:00:59;;;;;;;0.50;0.50;;;7.70;99.90;;;;;;6072470;23;20171;-77
2023/04/02 04:03:49;;;;;;;0.85;0.75;;;7.60;99.90;;;;;;6098060;23;20171;-77
2023/04/02 04:06:18;;;;;;;0.40;0.40;;;7.50;99.90;;;;;;6098335;23;20152;-77
2023/04/02 04:08:53;;;;;;;1.30;1.20;;;7.50;99.90;;;;;;6072374;23;20177;-78
2023/04/02 04:11:28;;;;;;;0.40;0.40;;;7.60;99.90;;;;;;6098200;23;20140;-77
2023/04/02 04:14:27;;;;;;;2.05;1.15;;;7.60;99.90;;;;;;6097973;23;20174;-76
2023/04/02 04:17:08;;;;;;;0.50;0.50;;;7.60;99.90;;;;;;6091287;23;20167;-77
2023/04/02 04:19:50;;;;;;;0.45;0.45;;;7.60;99.90;;;;;;6097580;23;20168;-76
2023/04/02 04:22:29;;;;;;;0.52;0.52;;;7.60;99.90;;;;;;6097847;23;20155;-77
2023/04/02 04:25:04;;;;;;;0.40;0.40;;;7.60;99.90;;;;;;6098181;23;20140;-77
2023/04/02 04:27:41;;;;;;;0.30;0.30;;;7.60;99.90;;;;;;6097921;23;20131;-77
2023/04/02 04:30:33;;;;;;;0.40;0.40;;;7.50;99.90;;;;;;6072207;23;20624;-76
2023/04/02 04:33:02;;;;;;;0.40;0.40;;;7.50;99.90;;;;;;6072179;23;20177;-78
2023/04/02 04:35:32;;;;;;;0.40;0.40;;;7.50;99.90;;;;;;6097617;23;20203;-76
2023/04/02 04:38:14;;;;;;;0.77;0.77;;;7.50;99.90;;;;;;6097696;23;20215;-77
2023/04/02 04:40:52;;;;;;;0.30;0.30;;;7.60;99.90;;;;;;6097701;23;20206;-78
2023/04/02 04:43:39;;;;;;;0.30;0.30;;;7.60;99.90;;;;;;6097622;23;20266;-76
2023/04/02 04:46:12;;;;;;;0.30;0.30;;;7.60;99.90;;;;;;6096426;23;20140;-78
2023/04/02 04:49:12;;;;;;;0.40;0.40;;;7.60;99.90;;;;;;6097504;23;20156;-78
2023/04/02 04:51:59;;;;;;;0.30;0.30;;;7.50;99.90;;;;;;6097959;23;20145;-77
2023/04/02 04:54:26;;;;;;;0.30;0.30;;;7.40;99.90;;;;;;6071887;23;20232;-77
2023/04/02 04:57:00;;;;;;;0.30;0.30;;;7.40;99.90;;;;;;6097813;23;20152;-77
2023/04/02 04:59:31;;;;;;;0.40;0.40;;;7.40;99.90;;;;;;6097324;23;20181;-77
2023/04/02 05:02:15;;;;;;;0.60;0.50;;;7.30;99.90;;;;;;6093896;23;20192;-77
2023/04/02 05:04:42;;;;;;;0.50;0.50;;;7.30;99.90;;;;;;6097770;23;20240;-73
2023/04/02 05:07:11;;;;;;;0.30;0.30;;;7.30;99.90;;;;;;6097085;23;20151;-76
2023/04/02 05:09:43;;;;;;;0.30;0.30;;;7.30;99.90;;;;;;6070907;23;20164;-77
2023/04/02 05:12:29;;;;;;;0.40;0.40;;;7.40;99.90;;;;;;6097389;23;20178;-72
2023/04/02 05:15:30;;;;;;;0.30;0.30;;;7.30;99.90;;;;;;6098168;23;20159;-73
2023/04/02 05:17:58;;;;;;;0.40;0.40;;;7.30;99.90;;;;;;6077151;23;20165;-73
2023/04/02 05:20:49;;;;;;;0.30;0.30;;;7.40;99.90;;;;;;6099594;23;20225;-73
2023/04/02 05:32:18;;;;;;;0.30;0.30;;;9.00;99.90;;;;;;6125845;23;20630;-73
2023/04/02 05:34:49;;;;;;;0.65;0.65;;;9.60;99.80;;;;;;6124871;23;20199;-73
2023/04/02 05:37:25;;;;;;;0.40;0.40;;;9.60;98.60;;;;;;6125657;23;20140;-74
2023/04/02 05:39:58;;;;;;;0.40;0.40;;;9.30;98.60;;;;;;6125352;23;20614;-73
2023/04/02 05:48:29;;;;;;;0.30;0.30;;;8.40;99.90;;;;;;6077012;23;1141922;-71
2023/04/02 05:50:57;;;;;;;0.30;0.30;;;8.40;99.90;;;;;;6097074;23;20165;-71
2023/04/02 05:53:35;;;;;;;0.30;0.30;;;8.20;99.90;;;;;;6097253;23;20153;-71
2023/04/02 05:56:03;;;;;;;0.30;0.30;;;8.10;99.90;;;;;;6071658;23;20159;-67
2023/04/02 05:59:12;;;;;;;0.30;0.30;;;8.00;99.90;;;;;;6096727;23;20156;-79
2023/04/02 06:02:20;;;;;;;0.30;0.30;;;8.00;99.90;;;;;;6066675;23;20187;-73
2023/04/02 06:04:48;;;;;;;0.40;0.40;;;7.90;99.90;;;;;;6041085;23;20153;-76
2023/04/02 06:07:27;;;;;;;0.47;0.47;;;7.80;99.90;;;;;;6097205;23;20152;-76
2023/04/02 06:09:59;;;;;;;0.30;0.30;;;7.70;99.90;;;;;;6097280;23;20197;-75
2023/04/02 06:12:27;;;;;;;0.30;0.30;;;7.70;99.90;;;;;;6097284;23;20161;-73
2023/04/02 06:14:53;;;;;;;0.30;0.30;;;7.70;99.90;;;;;;6097460;23;20234;-75
2023/04/02 06:17:20;;;;;;;0.30;0.30;;;7.70;99.90;;;;;;6097261;23;20191;-75
2023/04/02 06:19:48;;;;;;;0.30;0.30;;;7.80;99.90;;;;;;6098948;23;20204;-74
2023/04/02 06:22:46;;;;;;;0.30;0.30;;;7.80;99.90;;;;;;6099554;23;20199;-75
2023/04/02 06:25:32;;;;;;;0.30;0.30;;;7.80;99.90;;;;;;6093031;23;20167;-74
2023/04/02 06:28:02;;;;;;;0.38;0.38;;;7.70;99.90;;;;;;6099452;23;20141;-73
2023/04/02 06:30:34;;;;;;;0.30;0.30;;;7.70;99.90;;;;;;6099827;23;20176;-75
2023/04/02 06:33:00;;;;;;;0.40;0.40;;;7.80;99.90;;;;;;6099742;23;20148;-77
2023/04/02 06:35:26;;;;;;;0.33;0.33;;;7.90;99.90;;;;;;6098822;23;20159;-77
2023/04/02 06:37:54;;;;;;;0.40;0.40;;;7.80;99.90;;;;;;6099075;23;20843;-76
2023/04/02 06:40:32;;;;;;;1.05;1.05;;;7.70;99.90;;;;;;6099068;23;20633;-75
2023/04/02 06:43:03;;;;;;;0.30;0.30;;;7.70;99.90;;;;;;6099481;23;20457;-76
2023/04/02 06:45:33;;;;;;;0.40;0.40;;;7.50;99.90;;;;;;6073239;23;20145;-73
2023/04/02 06:48:01;;;;;;;0.30;0.30;;;7.60;99.90;;;;;;6099756;23;20191;-74
2023/04/02 06:50:53;;;;;;;0.60;0.60;;;7.50;99.90;;;;;;6098815;23;20188;-74
2023/04/02 06:53:37;;;;;;;0.30;0.30;;;7.70;99.90;;;;;;6099580;23;20149;-76
2023/04/02 06:56:23;;;;;;;0.30;0.30;;;7.90;99.90;;;;;;6073975;23;20148;-74
2023/04/02 06:58:50;;;;;;;0.30;0.30;;;8.00;99.90;;;;;;6098949;23;20173;-73
2023/04/02 07:01:26;;;;;;;0.68;0.45;;;8.10;99.90;;;;;;6098994;23;20187;-72
2023/04/02 07:03:53;;;;;;;0.40;0.40;;;8.10;99.90;;;;;;6098449;23;20140;-73
2023/04/02 07:06:20;;;;;;;0.30;0.30;;;8.10;99.90;;;;;;6098563;23;20148;-78
2023/04/02 07:08:46;;;;;;;0.30;0.30;;;8.10;99.90;;;;;;6099363;23;20195;-75
2023/04/02 07:11:20;;;;;;;0.40;0.40;;;8.10;99.90;;;;;;6098674;23;20156;-71
2023/04/02 07:16:25;;;;;;;0.63;0.63;;;8.00;99.90;;;;;;6102751;23;20203;-73
2023/04/02 07:18:55;;;;;;;0.30;0.30;;;8.00;99.90;;;;;;6124898;23;20199;-72
2023/04/02 07:51:36;;;;;;;0.38;0.38;;;8.50;99.90;;;;;;5090980;27;20545;-72
2023/04/02 07:54:02;;;;;;;0.40;0.40;;;8.60;99.90;;;;;;5091443;28;20168;-71
2023/04/02 07:56:28;;;;;;;0.30;0.30;;;8.70;99.90;;;;;;5090152;28;20172;-71
2023/04/02 07:58:54;;;;;;;0.40;0.40;;;8.50;99.90;;;;;;5090832;28;20499;-72
2023/04/02 08:01:25;;;;;;;0.40;0.40;;;8.50;99.90;;;;;;5090935;28;20180;-71
2023/04/02 08:03:53;;;;;;;0.50;0.50;;;8.60;99.90;;;;;;5090912;28;20222;-72
2023/04/02 08:06:19;;;;;;;0.30;0.30;;;8.70;99.90;;;;;;5090411;28;20175;-71
2023/04/02 08:08:45;;;;;;;0.30;0.30;;;8.70;99.90;;;;;;5090939;28;20226;-73
2023/04/02 08:11:11;;;;;;;0.40;0.40;;;8.60;99.90;;;;;;5090446;28;20246;-73
2023/04/02 08:13:38;;;;;;;0.30;0.30;;;8.50;99.90;;;;;;5090302;28;20268;-72
2023/04/02 08:16:05;;;;;;;0.52;0.52;;;8.40;99.90;;;;;;5090293;28;20514;-74
2023/04/02 08:18:31;;;;;;;0.45;0.45;;;8.50;99.90;;;;;;5090746;28;20322;-72
2023/04/02 08:20:58;;;;;;;0.30;0.30;;;8.50;99.90;;;;;;5090789;28;20259;-71
2023/04/02 08:23:25;;;;;;;0.40;0.40;;;8.40;99.90;;;;;;5090251;28;20240;-73
2023/04/02 08:25:52;;;;;;;0.40;0.40;;;8.40;99.90;;;;;;5090032;28;20176;-73
2023/04/02 08:28:19;;;;;;;0.30;0.30;;;8.50;99.90;;;;;;5090450;28;20173;-73
2023/04/02 08:30:47;;;;;;;0.40;0.40;;;8.70;99.90;;;;;;5089966;28;20203;-70
2023/04/02 08:33:13;;;;;;;0.40;0.40;;;8.80;99.90;;;;;;5090325;28;20192;-71
2023/04/02 08:35:39;;;;;;;0.40;0.40;;;8.80;99.90;;;;;;5089619;28;20157;-71
2023/04/02 08:38:05;;;;;;;0.30;0.30;;;8.80;99.90;;;;;;5089898;28;20170;-71
2023/04/02 08:44:40;;;;;;;0.30;0.30;;;8.80;99.90;;;;;;5090912;28;20184;-72
2023/04/02 08:51:20;;;;;;;0.30;0.30;;;9.30;99.90;;;;;;5089823;28;20745;-71
2023/04/02 09:14:16;;;;;;;0.73;0.73;;;8.50;99.90;;;;;;5078863;28;20223;-67
2023/04/02 09:16:57;;;;;;;0.30;0.30;;;8.90;99.90;;;;;;5075627;28;20591;-66
2023/04/02 09:19:33;;;;;;;0.40;0.40;;;9.70;99.90;;;;;;5076043;28;20173;-67
2023/04/02 09:22:07;;;;;;;0.30;0.30;;;10.40;99.90;;;;;;5076253;28;20192;-67
2023/04/02 09:24:36;;;;;;;0.30;0.30;;;10.90;99.30;;;;;;5076203;28;20418;-67
2023/04/02 09:27:03;;;;;;;0.53;0.53;;;11.40;98.40;;;;;;5075718;28;20192;-67
2023/04/02 09:29:43;;;;;;;0.30;0.30;;;11.80;97.20;;;;;;5076114;28;20826;-67
2023/04/02 09:32:31;;;;;;;7.63;2.67;;;12.10;96.70;;;;;;5075917;28;20514;-74
2023/04/02 09:35:27;;;;;;;2.33;0.83;;;12.40;96.10;;;;;;5074128;28;20407;-73
2023/04/02 09:38:31;;;;;;;0.40;0.40;;;12.30;95.30;;;;;;5074880;28;20418;-71
2023/04/02 09:41:02;;;;;;;0.40;0.40;;;12.00;95.30;;;;;;5056669;28;20415;-74
2023/04/02 09:43:36;;;;;;;0.30;0.30;;;11.70;95.50;;;;;;5073418;28;20289;-72
2023/04/02 09:46:23;;;;;;;0.40;0.40;;;11.20;95.90;;;;;;5073874;28;20190;-73
2023/04/02 09:48:59;;;;;;;0.30;0.30;;;10.80;96.80;;;;;;5075739;28;20170;-73
2023/04/02 09:51:35;;;;;;;0.30;0.30;;;10.50;97.30;;;;;;5075124;28;20212;-73
2023/04/02 09:54:03;;;;;;;0.40;0.40;;;10.30;97.40;;;;;;5075292;28;20149;-74
2023/04/02 09:56:37;;;;;;;0.30;0.30;;;10.10;98.00;;;;;;5074664;28;20223;-72
2023/04/02 10:05:03;;;;;;;0.40;0.40;;;10.30;98.60;;;;;;5428518;22;20465;-69
2023/04/02 10:07:37;;;;;;;0.30;0.30;;;10.50;98.70;;;;;;5034664;28;20615;-71
2023/04/02 10:10:29;;;;;;;0.30;0.30;;;10.80;98.60;;;;;;5034706;28;20203;-72
2023/04/02 10:19:27;;;;;;;0.30;0.30;;;10.70;97.60;;;;;;5767122;22;20229;-72
2023/04/02 10:21:57;;;;;;;0.40;0.40;;;10.80;98.00;;;;;;5036529;28;20829;-72
2023/04/02 10:33:26;;;;;;;2.38;1.08;;;9.90;99.90;;;;;;6092960;22;21015;-72
2023/04/02 10:36:07;;;;;;;0.77;0.77;;;10.00;98.00;;;;;;4999998;28;20195;-72
2023/04/02 10:38:41;;;;;;;0.40;0.40;;;9.70;98.40;;;;;;4994864;28;20435;-73
2023/04/02 10:41:22;;;;;;;0.30;0.30;;;9.70;98.90;;;;;;4994888;28;20182;-70
2023/04/02 10:44:03;;;;;;;0.40;0.40;;;9.70;99.20;;;;;;4994542;28;20188;-71
2023/04/02 10:46:46;;;;;;;0.40;0.40;;;9.90;99.70;;;;;;4993329;28;20176;-71
2023/04/02 10:49:39;;;;;;;0.40;0.40;;;9.90;99.50;;;;;;4995248;28;20184;-72
2023/04/02 10:52:17;;;;;;;0.30;0.30;;;10.00;99.30;;;;;;4995211;28;20171;-72
2023/04/02 10:54:49;;;;;;;0.30;0.30;;;10.10;98.30;;;;;;4994518;28;20235;-72
2023/04/02 10:57:37;;;;;;;0.40;0.40;;;10.10;98.20;;;;;;4995054;28;20172;-71
2023/04/02 11:00:16;;;;;;;0.30;0.30;;;10.20;98.40;;;;;;4995115;28;20173;-71
2023/04/02 11:03:10;;;;;;;6.90;6.40;;;10.60;98.40;;;;;;4993424;28;20419;-73
2023/04/02 11:05:56;;;;;;;1.13;1.00;;;10.90;97.40;;;;;;4965039;28;20208;-71
2023/04/02 11:08:26;;;;;;;1.53;1.43;;;11.20;96.90;;;;;;4995336;28;20553;-74
2023/04/02 11:11:13;;;;;;;1.03;0.63;;;11.30;96.80;;;;;;5216542;23;20526;-72
2023/04/02 11:13:52;;;;;;;2.57;2.37;;;11.50;97.00;;;;;;5055798;28;20753;-71
2023/04/02 11:16:18;;;;;;;0.30;0.30;;;11.60;96.10;;;;;;5051705;28;20401;-73
2023/04/02 11:19:07;;;;;;;0.50;0.40;;;11.70;96.20;;;;;;5052358;28;20407;-74
2023/04/02 11:21:37;;;;;;;0.97;0.70;;;11.70;95.40;;;;;;5033206;28;20417;-72
2023/04/02 11:24:03;;;;;;;0.40;0.40;;;11.60;96.10;;;;;;5014747;28;20413;-71
2023/04/02 11:26:40;;;;;;;0.40;0.40;;;11.40;95.80;;;;;;5031929;28;20427;-72
2023/04/02 11:29:12;;;;;;;0.40;0.40;;;10.60;99.90;;;;;;5031570;28;20420;-73
2023/04/02 11:31:37;;;;;;;0.40;0.40;;;11.00;96.00;;;;;;5032960;28;20510;-73
2023/04/02 11:34:03;;;;;;;0.37;0.37;;;10.90;96.40;;;;;;5033162;28;20557;-72
2023/04/02 11:36:53;;;;;;;0.30;0.30;;;10.70;96.50;;;;;;5033687;28;20554;-73
2023/04/02 11:39:52;;;;;;;0.88;0.88;;;10.70;99.90;;;;;;5033801;28;20177;-74
2023/04/02 11:42:18;;;;;;;0.57;0.57;;;10.50;97.40;;;;;;5033637;28;20194;-76
2023/04/02 11:44:43;;;;;;;0.73;0.73;;;10.50;97.40;;;;;;5033121;28;20402;-73
2023/04/02 11:47:15;;;;;;;0.30;0.30;;;10.60;97.60;;;;;;5032631;28;20171;-73
2023/04/02 11:50:00;;;;;;;0.57;0.57;;;10.70;97.50;;;;;;5032674;28;20491;-73
2023/04/02 11:52:28;;;;;;;0.50;0.50;;;11.00;97.50;;;;;;5031908;28;20401;-73
2023/04/02 11:55:03;;;;;;;0.40;0.40;;;11.30;97.40;;;;;;5032332;28;20709;-73
2023/04/02 11:57:57;;;;;;;0.40;0.40;;;11.60;97.20;;;;;;5033254;28;20436;-73
2023/04/02 12:00:32;;;;;;;0.33;0.33;;;12.00;96.10;;;;;;5033153;28;20440;-74
2023/04/02 12:03:32;;;;;;;1.03;0.83;;;12.40;95.10;;;;;;5032748;28;20888;-73
2023/04/02 12:06:18;;;;;;;1.57;0.90;;;12.50;94.90;;;;;;5033651;28;20881;-73
2023/04/02 12:09:04;;;;;;;0.53;0.50;;;12.50;94.60;;;;;;5032762;28;20431;-73
2023/04/02 12:11:38;;;;;;;0.50;0.50;;;12.40;93.80;;;;;;5032897;28;20494;-73
2023/04/02 12:14:29;;;;;;;0.30;0.30;;;12.30;94.40;;;;;;5031955;28;20405;-73
2023/04/02 12:16:55;;;;;;;0.33;0.33;;;12.30;95.30;;;;;;5031932;28;20410;-74
2023/04/02 12:19:22;;;;;;;0.37;0.37;;;11.90;97.70;;;;;;5031954;28;20409;-75
2023/04/02 12:21:51;;;;;;;0.40;0.40;;;12.10;95.20;;;;;;5032357;28;20417;-74
2023/04/02 12:24:20;;;;;;;0.80;0.63;;;11.90;94.80;;;;;;5031895;28;20401;-74
2023/04/02 12:26:46;;;;;;;8.47;3.47;;;11.60;94.90;;;;;;5032276;28;20761;-74
2023/04/02 12:29:20;;;;;;;1.50;1.40;;;11.70;99.90;;;;;;5032405;28;20404;-74
2023/04/02 12:31:47;;;;;;;0.30;0.30;;;11.70;95.80;;;;;;5014992;28;20921;-74
2023/04/02 12:34:18;;;;;;;0.40;0.40;;;11.80;95.60;;;;;;5032334;28;20777;-74
2023/04/02 12:36:58;;;;;;;6.77;2.10;;;11.80;95.50;;;;;;5033841;28;20424;-74
2023/04/02 12:39:24;;;;;;;0.50;0.50;;;11.50;96.20;;;;;;5036727;28;20427;-74
2023/04/02 12:41:50;;;;;;;0.40;0.40;;;11.50;95.90;;;;;;5036467;28;20514;-74
2023/04/02 12:44:20;;;;;;;0.30;0.30;;;11.60;96.30;;;;;;5035954;28;20485;-74
2023/04/02 12:46:46;;;;;;;0.40;0.40;;;11.70;95.60;;;;;;5036620;28;20173;-74
2023/04/02 12:49:33;;;;;;;1.03;0.93;;;12.20;99.80;;;;;;5036263;28;20397;-74
2023/04/02 12:52:02;;;;;;;0.50;0.50;;;12.00;95.60;;;;;;5036238;28;20416;-74
2023/04/02 12:54:31;;;;;;;0.40;0.40;;;12.20;95.10;;;;;;5035678;28;20762;-74
2023/04/02 12:57:30;;;;;;;0.30;0.30;;;12.50;95.10;;;;;;5036240;28;21020;-74
2023/04/02 13:00:05;;;;;;;0.30;0.30;;;12.90;95.30;;;;;;5036363;28;20483;-74
2023/04/02 13:02:42;;;;;;;0.30;0.30;;;13.20;93.30;;;;;;5036216;28;20473;-74
2023/04/02 13:05:10;;;;;;;0.30;0.30;;;13.50;94.10;;;;;;5035606;28;20405;-74
2023/04/02 13:07:36;;;;;;;0.30;0.30;;;13.80;93.90;;;;;;5036027;28;20815;-74
2023/04/02 13:10:05;;;;;;;0.30;0.30;;;14.00;92.80;;;;;;5035659;28;20518;-74
2023/04/02 13:12:40;;;;;;;0.40;0.40;;;13.90;90.90;;;;;;5035939;28;20962;-74
2023/04/02 13:15:22;;;;;;;0.30;0.30;;;13.70;90.60;;;;;;5035586;28;20409;-74
2023/04/02 13:18:20;;;;;;;0.70;0.70;;;13.60;90.60;;;;;;5035854;28;20451;-74
2023/04/02 13:20:59;;;;;;;0.30;0.30;;;13.60;91.40;;;;;;5035795;28;20432;-74
2023/04/02 13:23:28;;;;;;;0.40;0.40;;;13.70;92.20;;;;;;5035490;28;20816;-74
2023/04/02 13:25:58;;;;;;;0.50;0.50;;;13.80;91.80;;;;;;5035798;28;20491;-74
2023/04/02 13:28:24;;;;;;;0.40;0.40;;;13.90;90.50;;;;;;5036258;28;20409;-74
2023/04/02 13:30:49;;;;;;;0.30;0.30;;;13.80;90.70;;;;;;5035444;28;20484;-74
2023/04/02 13:33:16;;;;;;;0.30;0.30;;;13.80;90.60;;;;;;5035042;28;20414;-74
2023/04/02 13:35:42;;;;;;;0.40;0.40;;;13.90;90.80;;;;;;5035674;28;20456;-75
2023/04/02 13:38:08;;;;;;;0.30;0.30;;;13.90;90.60;;;;;;5035448;28;20893;-77
2023/04/02 13:40:36;;;;;;;0.50;0.50;;;13.50;91.50;;;;;;5035747;28;20426;-77
2023/04/02 13:43:02;;;;;;;0.30;0.30;;;13.10;93.00;;;;;;5017495;28;20716;-75
2023/04/02 13:45:37;;;;;;;0.30;0.30;;;13.00;92.70;;;;;;5034918;28;20866;-77
2023/04/02 13:48:04;;;;;;;0.30;0.30;;;13.10;92.10;;;;;;5034819;28;20467;-75
2023/04/02 13:50:31;;;;;;;0.40;0.40;;;13.00;93.80;;;;;;5034830;28;20471;-75
2023/04/02 13:53:03;;;;;;;0.30;0.30;;;12.90;94.80;;;;;;5034202;28;20402;-75
2023/04/02 13:55:30;;;;;;;0.30;0.30;;;12.80;95.30;;;;;;5035072;28;20403;-76
2023/04/02 13:57:56;;;;;;;0.40;0.40;;;12.40;93.70;;;;;;5034873;28;20409;-76
2023/04/02 14:00:22;;;;;;;0.40;0.40;;;12.20;95.70;;;;;;5017005;28;20649;-76
2023/04/02 14:03:04;;;;;;;0.40;0.40;;;12.00;96.00;;;;;;5034384;28;20413;-75
2023/04/02 14:05:46;;;;;;;0.40;0.40;;;11.80;95.90;;;;;;5034650;28;20467;-75
2023/04/02 14:08:24;;;;;;;0.30;0.30;;;11.70;95.90;;;;;;5035122;28;20603;-75
2023/04/02 14:11:28;;;;;;;0.30;0.30;;;11.60;97.40;;;;;;5033543;28;20831;-75
2023/04/02 14:14:21;;;;;;;0.30;0.30;;;11.40;97.30;;;;;;5033231;28;20732;-75
2023/04/02 14:16:55;;;;;;;0.50;0.50;;;11.20;98.00;;;;;;5033669;28;20397;-75
2023/04/02 14:19:28;;;;;;;0.30;0.30;;;11.00;99.90;;;;;;5033970;28;20443;-75
2023/04/02 14:22:03;;;;;;;0.30;0.30;;;11.00;99.70;;;;;;5034172;28;20738;-75
2023/04/02 14:24:58;;;;;;;0.30;0.30;;;11.00;99.90;;;;;;5034004;28;20877;-75
2023/04/02 14:27:29;;;;;;;0.40;0.40;;;10.90;99.90;;;;;;5034829;28;20398;-74
2023/04/02 14:30:05;;;;;;;0.30;0.30;;;10.90;99.90;;;;;;5034497;28;20445;-75
2023/04/02 14:32:35;;;;;;;0.40;0.40;;;10.80;99.90;;;;;;5017285;28;20397;-76
2023/04/02 14:35:18;;;;;;;0.40;0.40;;;10.80;99.90;;;;;;5034078;28;20405;-75
2023/04/02 14:38:02;;;;;;;0.40;0.40;;;10.80;99.90;;;;;;5034795;28;20453;-75
2023/04/02 14:40:48;;;;;;;0.30;0.30;;;11.10;99.90;;;;;;5034448;28;20425;-75
2023/04/02 14:43:32;;;;;;;0.37;0.37;;;11.20;99.90;;;;;;5034116;28;20913;-74
2023/04/02 14:46:06;;;;;;;0.30;0.30;;;11.50;99.90;;;;;;5034523;28;20437;-76
2023/04/02 14:48:44;;;;;;;0.40;0.40;;;11.70;99.90;;;;;;5034536;28;20788;-72
2023/04/02 14:51:29;;;;;;;0.30;0.30;;;12.10;99.90;;;;;;5034107;28;20441;-75
2023/04/02 14:53:58;;;;;;;0.30;0.30;;;12.50;97.30;;;;;;5033828;28;20445;-73
2023/04/02 14:56:24;;;;;;;0.30;0.30;;;12.90;95.70;;;;;;5016621;28;20414;-76
2023/04/02 14:59:26;;;;;;;0.50;0.50;;;13.20;94.50;;;;;;5034025;28;20398;-77
2023/04/02 15:01:59;;;;;;;0.30;0.30;;;13.20;94.20;;;;;;4992079;28;20752;-76
2023/04/02 15:04:39;;;;;;;0.30;0.30;;;13.20;93.60;;;;;;5033516;28;20496;-67
2023/04/02 15:07:16;;;;;;;0.30;0.30;;;13.40;93.80;;;;;;5034457;28;20463;-68
2023/04/02 15:09:48;;;;;;;2.87;1.27;;;13.50;93.80;;;;;;5034197;28;20560;-68
2023/04/02 15:12:29;;;;;;;0.30;0.30;;;13.70;93.50;;;;;;5034605;28;20784;-72
2023/04/02 15:15:01;;;;;;;0.40;0.40;;;13.80;93.20;;;;;;5033603;28;20401;-76